createdAt,value
2018-11-26T00:00:47.513Z,37.87
2018-11-26T00:03:12.973Z,38.37
2018-11-26T00:05:38.822Z,38.23
2018-11-26T00:11:07.379Z,38.90
2018-11-26T00:13:32.466Z,37.17
2018-11-26T00:15:57.566Z,38.07
2018-11-26T00:18:22.639Z,37.87
2018-11-26T00:20:47.746Z,38.23
2018-11-26T00:23:13.192Z,37.60
2018-11-26T00:25:38.292Z,37.77
2018-11-26T00:28:03.430Z,38.33
2018-11-26T00:30:28.713Z,37.23
2018-11-26T00:32:53.818Z,36.47
2018-11-26T00:35:18.924Z,36.50
2018-11-26T00:37:43.986Z,38.43
2018-11-26T00:40:10.773Z,36.43
2018-11-26T00:45:13.649Z,36.77
2018-11-26T00:50:16.323Z,36.63
2018-11-26T00:52:42.095Z,38.43
2018-11-26T00:55:08.497Z,37.30
2018-11-26T00:57:33.570Z,37.57
2018-11-26T00:59:58.769Z,37.97
2018-11-26T01:02:23.876Z,38.87
2018-11-26T01:04:48.961Z,37.57
2018-11-26T01:07:14.072Z,36.90
2018-11-26T01:09:39.169Z,37.30
2018-11-26T01:12:04.420Z,38.60
2018-11-26T01:14:29.586Z,36.37
2018-11-26T01:16:54.938Z,36.03
2018-11-26T01:19:19.956Z,38.23
2018-11-26T01:21:45.126Z,36.70
2018-11-26T01:24:10.188Z,36.37
2018-11-26T01:26:35.244Z,36.07
2018-11-26T01:29:00.326Z,35.47
2018-11-26T01:31:25.418Z,33.97
2018-11-26T01:33:50.580Z,35.73
2018-11-26T01:36:15.636Z,36.00
2018-11-26T01:38:40.742Z,35.10
2018-11-26T01:41:05.876Z,34.83
2018-11-26T01:43:30.941Z,34.20
2018-11-26T01:45:56.057Z,34.33
2018-11-26T01:48:21.131Z,33.60
2018-11-26T01:50:46.208Z,33.47
2018-11-26T01:53:11.331Z,31.83
2018-11-26T01:55:36.542Z,30.43
2018-11-26T01:58:01.714Z,30.40
2018-11-26T02:00:27.850Z,31.47
2018-11-26T02:02:52.922Z,31.20
2018-11-26T02:05:18.080Z,30.67
2018-11-26T02:07:43.173Z,30.13
2018-11-26T02:10:10.473Z,30.00
2018-11-26T02:12:35.517Z,30.70
2018-11-26T02:15:00.610Z,28.37
2018-11-26T02:17:25.693Z,29.97
2018-11-26T02:19:50.770Z,30.40
2018-11-26T02:22:15.825Z,30.17
2018-11-26T02:24:40.927Z,30.47
2018-11-26T02:27:06.409Z,29.83
2018-11-26T02:29:31.458Z,29.63
2018-11-26T02:31:56.517Z,29.83
2018-11-26T02:34:21.565Z,30.40
2018-11-26T02:36:46.895Z,30.13
2018-11-26T02:39:11.929Z,30.13
2018-11-26T02:41:36.958Z,28.97
2018-11-26T02:44:02.028Z,29.27
2018-11-26T02:46:27.100Z,30.70
2018-11-26T02:48:52.206Z,30.63
2018-11-26T02:51:17.200Z,29.53
2018-11-26T02:53:42.521Z,30.17
2018-11-26T02:56:07.553Z,29.90
2018-11-26T02:58:32.597Z,30.30
2018-11-26T03:00:57.707Z,29.73
2018-11-26T03:03:22.760Z,28.47
2018-11-26T03:05:48.225Z,29.43
2018-11-26T03:08:13.335Z,29.37
2018-11-26T03:10:38.380Z,28.70
2018-11-26T03:13:15.313Z,26.77
2018-11-26T03:15:40.387Z,26.97
2018-11-26T03:18:05.477Z,28.13
2018-11-26T03:20:30.521Z,27.03
2018-11-26T03:22:55.620Z,27.33
2018-11-26T03:25:39.691Z,26.97
2018-11-26T03:28:04.796Z,26.10
2018-11-26T03:30:30.188Z,27.40
2018-11-26T03:32:55.302Z,27.07
2018-11-26T03:35:20.395Z,26.60
2018-11-26T03:37:45.536Z,26.73
2018-11-26T03:40:11.925Z,25.77
2018-11-26T03:42:36.961Z,26.33
2018-11-26T03:45:02.046Z,26.70
2018-11-26T03:47:27.099Z,27.17
2018-11-26T03:49:52.177Z,26.60
2018-11-26T03:52:17.215Z,26.93
2018-11-26T03:54:42.271Z,27.97
2018-11-26T03:57:07.468Z,26.97
2018-11-26T03:59:32.553Z,26.90
2018-11-26T04:01:57.748Z,26.73
2018-11-26T04:04:22.801Z,26.70
2018-11-26T04:06:47.868Z,27.30
2018-11-26T04:09:12.967Z,27.93
2018-11-26T04:11:38.407Z,27.30
2018-11-26T04:14:03.593Z,27.23
2018-11-26T04:16:28.681Z,28.27
2018-11-26T04:18:53.735Z,29.67
2018-11-26T04:21:18.855Z,28.47
2018-11-26T04:23:43.932Z,28.33
2018-11-26T04:26:09.031Z,29.13
2018-11-26T04:28:34.074Z,27.57
2018-11-26T04:30:59.113Z,27.30
2018-11-26T04:33:24.281Z,27.87
2018-11-26T04:35:49.392Z,26.73
2018-11-26T04:38:14.449Z,28.37
2018-11-26T04:40:39.505Z,26.23
2018-11-26T04:43:04.583Z,26.17
2018-11-26T04:45:29.691Z,26.70
2018-11-26T04:47:54.746Z,26.13
2018-11-26T04:52:56.921Z,26.93
2018-11-26T04:55:22.091Z,25.97
2018-11-26T04:57:47.128Z,24.30
2018-11-26T05:00:13.619Z,23.33
2018-11-26T05:02:38.727Z,24.60
2018-11-26T05:05:03.822Z,23.70
2018-11-26T05:07:28.924Z,24.63
2018-11-26T05:09:53.965Z,24.10
2018-11-26T05:12:19.053Z,24.73
2018-11-26T05:14:44.091Z,23.10
2018-11-26T05:17:09.155Z,23.03
2018-11-26T05:19:34.288Z,23.77
2018-11-26T05:21:59.390Z,24.33
2018-11-26T05:24:24.505Z,24.87
2018-11-26T05:26:49.656Z,23.97
2018-11-26T05:29:14.689Z,22.90
2018-11-26T05:31:39.773Z,22.97
2018-11-26T05:34:04.859Z,23.97
2018-11-26T05:36:30.113Z,24.77
2018-11-26T05:38:55.209Z,23.80
2018-11-26T05:41:20.321Z,23.07
2018-11-26T05:43:45.369Z,24.10
2018-11-26T05:46:10.467Z,22.60
2018-11-26T05:48:35.530Z,23.60
2018-11-26T05:51:00.580Z,24.17
2018-11-26T05:53:25.680Z,23.03
2018-11-26T05:55:50.763Z,23.67
2018-11-26T05:58:15.837Z,23.70
2018-11-26T06:03:19.918Z,24.50
2018-11-26T06:05:45.028Z,25.10
2018-11-26T06:08:10.136Z,23.53
2018-11-26T06:10:35.258Z,25.40
2018-11-26T06:13:00.348Z,24.73
2018-11-26T06:15:25.405Z,25.17
2018-11-26T06:17:57.753Z,25.67
2018-11-26T06:20:22.828Z,24.83
2018-11-26T06:22:48.447Z,24.23
2018-11-26T06:25:36.367Z,25.20
2018-11-26T06:28:01.441Z,26.20
2018-11-26T06:30:26.612Z,25.10
2018-11-26T06:32:51.714Z,24.60
2018-11-26T06:35:36.441Z,26.23
2018-11-26T06:38:01.535Z,26.23
2018-11-26T06:40:26.656Z,24.67
2018-11-26T06:42:51.774Z,25.67
2018-11-26T06:45:21.224Z,26.57
2018-11-26T06:47:46.310Z,26.77
2018-11-26T06:50:15.323Z,26.37
2018-11-26T06:52:40.410Z,26.03
2018-11-26T06:55:06.022Z,25.90
2018-11-26T06:57:31.112Z,27.37
2018-11-26T06:59:56.416Z,27.40
2018-11-26T07:02:21.512Z,27.73
2018-11-26T07:04:46.550Z,27.07
2018-11-26T07:07:11.678Z,26.50
2018-11-26T07:09:36.718Z,27.07
2018-11-26T07:12:01.838Z,27.33
2018-11-26T07:14:26.842Z,26.67
2018-11-26T07:16:51.872Z,27.33
2018-11-26T07:19:16.930Z,27.40
2018-11-26T07:21:41.984Z,26.80
2018-11-26T07:24:07.173Z,25.17
2018-11-26T07:26:32.239Z,27.00
2018-11-26T07:28:57.301Z,26.37
2018-11-26T07:31:22.363Z,25.73
2018-11-26T07:33:47.388Z,26.27
2018-11-26T07:36:12.477Z,26.07
2018-11-26T07:38:37.536Z,27.13
2018-11-26T07:41:02.593Z,26.20
2018-11-26T07:43:27.637Z,26.87
2018-11-26T07:45:52.706Z,25.90
2018-11-26T07:48:17.727Z,25.17
2018-11-26T07:50:42.807Z,24.77
2018-11-26T07:53:27.732Z,25.53
2018-11-26T07:55:52.790Z,24.83
2018-11-26T07:58:17.887Z,25.00
2018-11-26T08:00:43.110Z,26.53
2018-11-26T08:03:19.838Z,26.50
2018-11-26T08:05:44.908Z,27.50
2018-11-26T08:08:09.984Z,26.00
2018-11-26T08:10:35.201Z,25.83
2018-11-26T08:13:00.312Z,26.80
2018-11-26T08:15:26.381Z,26.00
2018-11-26T08:20:27.756Z,25.63
2018-11-26T08:22:52.828Z,25.67
2018-11-26T08:25:19.425Z,25.37
2018-11-26T08:27:45.179Z,26.73
2018-11-26T08:30:30.612Z,27.07
2018-11-26T08:33:04.635Z,25.33
2018-11-26T08:35:30.066Z,25.73
2018-11-26T08:38:13.855Z,25.93
2018-11-26T08:40:57.617Z,25.90
2018-11-26T08:43:41.506Z,26.27
2018-11-26T08:49:01.698Z,25.40
2018-11-26T08:51:26.762Z,25.10
2018-11-26T08:53:51.816Z,24.43
2018-11-26T08:56:16.896Z,23.73
2018-11-26T08:58:41.994Z,25.67
2018-11-26T09:01:17.282Z,25.23
2018-11-26T09:06:18.644Z,24.23
2018-11-26T09:08:43.727Z,24.00
2018-11-26T09:11:10.082Z,25.73
2018-11-26T09:13:35.167Z,22.47
2018-11-26T09:16:00.188Z,24.33
2018-11-26T09:18:25.248Z,22.73
2018-11-26T09:20:50.311Z,24.23
2018-11-26T09:23:15.367Z,24.17
2018-11-26T09:25:40.402Z,23.57
2018-11-26T09:28:05.537Z,23.93
2018-11-26T09:30:30.614Z,23.53
2018-11-26T09:32:55.632Z,23.37
2018-11-26T09:35:20.700Z,21.43
2018-11-26T09:37:45.769Z,22.90
2018-11-26T09:40:12.753Z,21.67
2018-11-26T09:42:37.785Z,21.93
2018-11-26T09:45:02.871Z,21.40
2018-11-26T09:47:27.914Z,21.53
2018-11-26T09:49:52.977Z,23.33
2018-11-26T09:52:18.081Z,21.43
2018-11-26T09:54:43.163Z,20.87
2018-11-26T09:57:08.227Z,21.77
2018-11-26T09:59:33.469Z,20.83
2018-11-26T10:01:58.528Z,20.93
2018-11-26T10:04:23.597Z,20.73
2018-11-26T10:09:27.778Z,22.33
2018-11-26T10:11:52.908Z,21.50
2018-11-26T10:14:17.996Z,20.17
2018-11-26T10:16:43.133Z,23.83
2018-11-26T10:19:08.192Z,19.63
2018-11-26T10:21:33.426Z,20.30
2018-11-26T10:26:34.993Z,19.50
2018-11-26T10:29:00.047Z,18.90
2018-11-26T10:31:25.130Z,19.03
2018-11-26T10:33:50.232Z,18.33
2018-11-26T10:36:15.312Z,18.43
2018-11-26T10:38:40.390Z,18.03
2018-11-26T10:41:05.474Z,17.70
2018-11-26T10:43:30.785Z,18.27
2018-11-26T10:45:55.828Z,17.17
2018-11-26T10:48:20.923Z,16.77
2018-11-26T10:50:46.060Z,16.00
2018-11-26T10:53:11.122Z,16.77
2018-11-26T10:55:37.097Z,16.07
2018-11-26T10:58:02.257Z,14.97
2018-11-26T11:00:46.109Z,15.03
2018-11-26T11:03:11.394Z,15.43
2018-11-26T11:05:37.261Z,15.23
2018-11-26T11:08:02.378Z,15.70
2018-11-26T11:10:28.639Z,14.40
2018-11-26T11:12:53.853Z,14.63
2018-11-26T11:15:18.914Z,14.73
2018-11-26T11:17:43.968Z,14.70
2018-11-26T11:20:29.113Z,13.23
2018-11-26T11:22:54.196Z,13.57
2018-11-26T11:25:40.255Z,13.73
2018-11-26T11:28:05.743Z,13.63
2018-11-26T11:30:31.231Z,12.60
2018-11-26T11:32:56.309Z,14.03
2018-11-26T11:35:21.550Z,13.43
2018-11-26T11:37:47.622Z,13.00
2018-11-26T11:40:32.193Z,13.50
2018-11-26T11:42:57.784Z,12.77
2018-11-26T11:45:23.460Z,12.87
2018-11-26T11:47:48.536Z,12.73
2018-11-26T11:50:14.878Z,12.17
2018-11-26T11:52:39.998Z,11.90
2018-11-26T11:55:05.252Z,12.07
2018-11-26T11:57:30.369Z,12.17
2018-11-26T11:59:55.414Z,12.10
2018-11-26T12:02:20.633Z,12.00
2018-11-26T12:04:45.712Z,12.43
2018-11-26T12:07:10.879Z,12.23
2018-11-26T12:09:35.997Z,12.23
2018-11-26T12:14:38.007Z,11.47
2018-11-26T12:17:03.096Z,12.30
2018-11-26T12:19:28.203Z,11.70
2018-11-26T12:21:53.284Z,11.77
2018-11-26T12:24:18.360Z,11.87
2018-11-26T12:26:43.550Z,11.13
2018-11-26T12:29:08.618Z,11.33
2018-11-26T12:31:33.694Z,10.40
2018-11-26T12:33:58.794Z,11.00
2018-11-26T12:36:23.901Z,10.97
2018-11-26T12:38:48.954Z,11.00
2018-11-26T12:41:14.046Z,10.17
2018-11-26T12:43:39.151Z,11.53
2018-11-26T12:46:04.338Z,10.83
2018-11-26T12:48:29.468Z,10.80
2018-11-26T12:50:54.511Z,10.33
2018-11-26T12:53:19.615Z,11.07
2018-11-26T12:55:44.708Z,10.33
2018-11-26T12:58:09.809Z,10.97
2018-11-26T13:00:34.971Z,11.37
2018-11-26T13:03:01.378Z,10.67
2018-11-26T13:05:26.503Z,10.27
2018-11-26T13:07:51.646Z,10.37
2018-11-26T13:10:21.245Z,9.90
2018-11-26T13:12:45.251Z,10.60
2018-11-26T13:15:29.905Z,9.97
2018-11-26T13:17:55.010Z,11.00
2018-11-26T13:20:39.133Z,10.67
2018-11-26T13:23:04.216Z,11.47
2018-11-26T13:25:42.179Z,10.70
2018-11-26T13:28:06.598Z,10.33
2018-11-26T13:30:35.883Z,10.07
2018-11-26T13:33:20.273Z,9.80
2018-11-26T13:35:46.336Z,11.30
2018-11-26T13:38:11.511Z,11.03
2018-11-26T13:40:36.707Z,10.17
2018-11-26T13:43:01.827Z,11.00
2018-11-26T13:45:46.482Z,10.80
2018-11-26T13:48:12.632Z,9.70
2018-11-26T13:50:39.440Z,10.00
2018-11-26T13:53:04.547Z,10.33
2018-11-26T13:55:29.618Z,9.80
2018-11-26T13:57:54.839Z,9.87
2018-11-26T14:00:19.878Z,9.73
2018-11-26T14:02:44.985Z,10.53
2018-11-26T14:05:29.149Z,9.83
2018-11-26T14:07:54.239Z,9.80
2018-11-26T14:10:38.373Z,10.27
2018-11-26T14:13:05.024Z,10.13
2018-11-26T14:15:30.203Z,9.47
2018-11-26T14:17:55.313Z,10.60
2018-11-26T14:20:20.396Z,10.10
2018-11-26T14:22:45.479Z,10.50
2018-11-26T14:25:19.881Z,10.43
2018-11-26T14:27:45.481Z,10.20
2018-11-26T14:30:30.172Z,9.93
2018-11-26T14:32:55.660Z,9.70
2018-11-26T14:35:20.947Z,9.67
2018-11-26T14:37:46.592Z,10.10
2018-11-26T14:40:49.708Z,9.33
2018-11-26T14:43:14.804Z,9.40
2018-11-26T14:45:39.902Z,10.47
2018-11-26T14:48:05.626Z,9.03
2018-11-26T14:50:30.759Z,9.30
2018-11-26T14:52:55.875Z,9.87
2018-11-26T14:55:24.885Z,9.47
2018-11-26T14:57:49.978Z,9.43
2018-11-26T15:00:34.609Z,8.90
2018-11-26T15:02:59.737Z,9.53
2018-11-26T15:05:24.766Z,9.90
2018-11-26T15:07:49.845Z,9.73
2018-11-26T15:10:33.986Z,9.90
2018-11-26T15:12:59.060Z,10.07
2018-11-26T15:15:27.897Z,9.70
2018-11-26T15:17:52.989Z,9.70
2018-11-26T15:20:37.113Z,10.23
2018-11-26T15:23:02.373Z,10.50
2018-11-26T15:25:28.611Z,9.97
2018-11-26T15:27:54.828Z,9.97
2018-11-26T15:30:21.046Z,10.10
2018-11-26T15:33:05.151Z,10.33
2018-11-26T15:35:30.238Z,10.47
2018-11-26T15:37:55.310Z,11.40
2018-11-26T15:40:21.450Z,11.73
2018-11-26T15:42:46.536Z,11.80
2018-11-26T15:45:30.683Z,10.97
2018-11-26T15:48:15.105Z,11.73
2018-11-26T15:50:40.227Z,11.77
2018-11-26T15:53:05.301Z,10.87
2018-11-26T15:55:30.359Z,11.33
2018-11-26T15:57:55.475Z,11.10
2018-11-26T16:00:21.639Z,11.53
2018-11-26T16:02:46.839Z,11.43
2018-11-26T16:05:13.222Z,12.80
2018-11-26T16:07:38.326Z,12.47
2018-11-26T16:10:16.391Z,12.63
2018-11-26T16:12:41.824Z,12.00
2018-11-26T16:15:09.552Z,12.20
2018-11-26T16:17:34.639Z,13.87
2018-11-26T16:19:59.734Z,13.80
2018-11-26T16:22:24.823Z,14.40
2018-11-26T16:24:49.875Z,14.43
2018-11-26T16:27:14.985Z,14.60
2018-11-26T16:29:40.039Z,14.77
2018-11-26T16:32:05.151Z,14.30
2018-11-26T16:34:41.979Z,14.40
2018-11-26T16:37:07.507Z,14.40
2018-11-26T16:39:32.586Z,15.77
2018-11-26T16:41:57.711Z,14.97
2018-11-26T16:44:22.900Z,15.60
2018-11-26T16:46:47.992Z,15.40
2018-11-26T16:49:13.087Z,15.13
2018-11-26T16:51:38.206Z,15.30
2018-11-26T16:54:03.295Z,15.20
2018-11-26T16:56:28.345Z,15.80
2018-11-26T16:58:53.448Z,15.67
2018-11-26T17:01:18.567Z,15.77
2018-11-26T17:03:43.658Z,15.63
2018-11-26T17:08:46.267Z,16.17
2018-11-26T17:11:11.710Z,15.77
2018-11-26T17:13:36.822Z,16.10
2018-11-26T17:16:01.883Z,17.00
2018-11-26T17:18:27.010Z,16.20
2018-11-26T17:20:52.092Z,17.60
2018-11-26T17:23:17.225Z,15.97
2018-11-26T17:25:42.326Z,15.43
2018-11-26T17:30:45.307Z,16.07
2018-11-26T17:33:11.955Z,15.93
2018-11-26T17:35:37.042Z,16.13
2018-11-26T17:38:02.145Z,16.20
2018-11-26T17:40:27.632Z,16.53
2018-11-26T17:42:53.038Z,16.77
2018-11-26T17:45:18.733Z,16.87
2018-11-26T17:48:03.471Z,15.83
2018-11-26T17:50:39.073Z,16.20
2018-11-26T17:53:04.185Z,15.63
2018-11-26T17:55:29.291Z,15.80
2018-11-26T17:57:54.429Z,14.87
2018-11-26T18:00:48.169Z,14.07
2018-11-26T18:03:13.301Z,13.30
2018-11-26T18:05:38.438Z,13.13
2018-11-26T18:08:05.479Z,13.30
2018-11-26T18:10:30.598Z,12.17
2018-11-26T18:12:55.717Z,13.40
2018-11-26T18:15:20.896Z,13.03
2018-11-26T18:17:46.810Z,12.07
2018-11-26T18:20:22.069Z,12.80
2018-11-26T18:22:48.367Z,12.03
2018-11-26T18:25:13.573Z,11.43
2018-11-26T18:27:39.105Z,12.90
2018-11-26T18:30:05.120Z,11.63
2018-11-26T18:32:30.262Z,13.20
2018-11-26T18:34:55.354Z,11.97
2018-11-26T18:37:20.518Z,12.67
2018-11-26T18:39:45.620Z,12.20
2018-11-26T18:42:10.748Z,12.27
2018-11-26T18:44:54.815Z,12.63
2018-11-26T18:47:19.942Z,11.87
2018-11-26T18:49:45.071Z,12.30
2018-11-26T18:52:10.186Z,11.93
2018-11-26T18:54:54.275Z,11.90
2018-11-26T18:57:19.438Z,11.57
2018-11-26T18:59:44.574Z,11.83
2018-11-26T19:02:09.697Z,11.83
2018-11-26T19:04:34.848Z,12.57
2018-11-26T19:06:59.993Z,12.47
2018-11-26T19:09:25.086Z,12.50
2018-11-26T19:11:50.204Z,13.27
2018-11-26T19:14:17.665Z,12.40
2018-11-26T19:16:45.013Z,12.30
2018-11-26T19:19:10.144Z,12.43
2018-11-26T19:21:35.285Z,12.03
2018-11-26T19:24:00.405Z,12.07
2018-11-26T19:26:25.855Z,11.43
2018-11-26T19:28:50.637Z,11.60
2018-11-26T19:31:15.755Z,12.47
2018-11-26T19:33:40.878Z,11.70
2018-11-26T19:36:06.405Z,11.87
2018-11-26T19:38:31.493Z,12.20
2018-11-26T19:40:56.618Z,12.80
2018-11-26T19:43:21.806Z,11.83
2018-11-26T19:45:46.942Z,11.77
2018-11-26T19:48:12.103Z,12.03
2018-11-26T19:50:37.332Z,12.13
2018-11-26T19:53:02.449Z,11.80
2018-11-26T19:55:28.035Z,13.13
2018-11-26T19:57:53.656Z,12.10
2018-11-26T20:00:37.905Z,12.93
2018-11-26T20:03:23.879Z,12.23
2018-11-26T20:06:26.974Z,13.63
2018-11-26T20:09:11.126Z,12.83
2018-11-26T20:14:21.331Z,13.27
2018-11-26T20:16:59.791Z,14.83
2018-11-26T20:19:24.890Z,15.33
2018-11-26T20:21:50.050Z,13.83
2018-11-26T20:24:15.157Z,12.80
2018-11-26T20:26:40.283Z,12.53
2018-11-26T20:29:05.455Z,12.30
2018-11-26T20:31:30.555Z,12.80
2018-11-26T20:33:56.251Z,13.13
2018-11-26T20:36:21.460Z,12.63
2018-11-26T20:38:46.547Z,13.27
2018-11-26T20:41:12.627Z,13.13
2018-11-26T20:43:56.709Z,13.00
2018-11-26T20:46:21.859Z,13.07
2018-11-26T20:48:46.983Z,12.27
2018-11-26T20:51:12.110Z,13.17
2018-11-26T20:53:37.229Z,14.43
2018-11-26T20:56:03.286Z,13.67
2018-11-26T20:58:28.379Z,13.80
2018-11-26T21:00:53.514Z,13.17
2018-11-26T21:03:19.387Z,13.67
2018-11-26T21:05:44.561Z,14.50
2018-11-26T21:08:09.691Z,14.50
2018-11-26T21:10:34.857Z,14.17
2018-11-26T21:12:59.952Z,14.70
2018-11-26T21:15:25.074Z,15.53
2018-11-26T21:17:51.366Z,13.73
2018-11-26T21:20:36.275Z,15.23
2018-11-26T21:23:01.387Z,14.43
2018-11-26T21:25:26.509Z,13.97
2018-11-26T21:27:51.601Z,14.00
2018-11-26T21:30:35.769Z,13.53
2018-11-26T21:33:00.968Z,15.20
2018-11-26T21:35:26.116Z,14.07
2018-11-26T21:37:52.287Z,14.97
2018-11-26T21:40:20.409Z,14.90
2018-11-26T21:42:43.879Z,14.97
2018-11-26T21:45:19.318Z,13.83
2018-11-26T21:47:44.392Z,14.17
2018-11-26T21:50:11.334Z,14.07
2018-11-26T21:52:36.448Z,14.67
2018-11-26T21:55:01.520Z,13.90
2018-11-26T21:57:26.583Z,14.37
2018-11-26T21:59:51.701Z,15.27
2018-11-26T22:02:16.918Z,14.93
2018-11-26T22:04:42.027Z,15.00
2018-11-26T22:07:07.436Z,14.10
2018-11-26T22:09:32.493Z,13.70
2018-11-26T22:12:10.368Z,14.30
2018-11-26T22:14:35.441Z,14.50
2018-11-26T22:17:00.524Z,14.40
2018-11-26T22:19:25.570Z,14.17
2018-11-26T22:21:50.650Z,14.80
2018-11-26T22:24:15.732Z,14.77
2018-11-26T22:26:40.798Z,14.80
2018-11-26T22:29:06.112Z,16.60
2018-11-26T22:31:31.180Z,15.60
2018-11-26T22:33:56.268Z,14.23
2018-11-26T22:36:21.375Z,14.13
2018-11-26T22:38:46.490Z,14.23
2018-11-26T22:41:11.597Z,14.23
2018-11-26T22:43:36.690Z,14.37
2018-11-26T22:46:02.204Z,15.23
2018-11-26T22:48:27.288Z,15.00
2018-11-26T22:50:52.355Z,15.20
2018-11-26T22:53:17.458Z,16.17
2018-11-26T22:55:42.613Z,15.90
2018-11-26T22:58:09.291Z,15.43
2018-11-26T23:00:54.407Z,15.90
2018-11-26T23:03:20.686Z,15.90
2018-11-26T23:05:45.816Z,18.93
2018-11-26T23:08:11.049Z,19.77
2018-11-26T23:10:36.167Z,22.47
2018-11-26T23:13:01.278Z,23.13
2018-11-26T23:15:26.359Z,21.00
2018-11-26T23:17:51.473Z,20.23
2018-11-26T23:20:35.594Z,17.53
2018-11-26T23:23:00.646Z,16.37
2018-11-26T23:25:25.731Z,17.50
2018-11-26T23:27:50.828Z,18.97
2018-11-26T23:30:34.956Z,19.40
2018-11-26T23:33:03.902Z,16.13
2018-11-26T23:35:29.060Z,16.57
2018-11-26T23:37:54.104Z,17.33
2018-11-26T23:40:19.233Z,18.10
2018-11-26T23:42:44.310Z,17.13
2018-11-26T23:45:13.645Z,17.30
2018-11-26T23:47:38.727Z,16.47
2018-11-26T23:50:03.829Z,16.23
2018-11-26T23:52:28.963Z,15.03
2018-11-26T23:54:54.046Z,16.30
2018-11-26T23:57:19.141Z,15.67
2018-11-26T23:59:44.220Z,16.30
